Time;durP1;ratioP1;P1;durP2;ratioP2;P2;SDS_P1;SDS_P2;PMS_P1;PMS_P2;Temp;Humidity;BMP_temperature;BMP_pressure;BME280_temperature;BME280_humidity;BME280_pressure;Samples;Min_cycle;Max_cycle;Signal;HPM_P1;HPM_P2
2024/02/08 00:01:08;;;;;;;4.40;3.30;;;;;;;8.58;75.96;95089.56;5009187;28;20202;-68
2024/02/08 00:03:33;;;;;;;2.63;2.30;;;;;;;8.59;76.00;95086.00;5008421;28;20184;-68
2024/02/08 00:05:59;;;;;;;3.43;2.93;;;;;;;8.50;76.59;95084.72;5008211;28;20303;-68
2024/02/08 00:08:24;;;;;;;2.80;2.47;;;;;;;8.39;77.12;95074.03;5008403;28;20203;-68
2024/02/08 00:10:49;;;;;;;3.90;2.57;;;;;;;8.48;76.85;95084.00;5008979;28;20227;-68
2024/02/08 00:13:16;;;;;;;4.27;2.50;;;;;;;8.54;76.39;95081.03;5008258;28;20615;-68
2024/02/08 00:15:41;;;;;;;2.40;2.20;;;;;;;8.41;76.86;95083.50;5008299;28;20638;-67
2024/02/08 00:18:07;;;;;;;4.00;2.83;;;;;;;8.45;76.69;95077.16;5008200;28;20411;-68
2024/02/08 00:20:33;;;;;;;3.13;2.43;;;;;;;8.50;76.49;95082.13;5008160;28;20168;-67
2024/02/08 00:22:59;;;;;;;3.03;2.30;;;;;;;8.48;76.88;95082.22;5008294;28;20172;-66
2024/02/08 00:25:24;;;;;;;4.40;2.67;;;;;;;8.51;77.48;95080.38;5007476;28;20188;-68
2024/02/08 00:27:52;;;;;;;3.70;3.10;;;;;;;8.48;76.85;95091.84;5008289;28;21060;-68
2024/02/08 00:30:18;;;;;;;2.87;2.33;;;;;;;8.52;77.18;95082.88;5006573;28;20180;-68
2024/02/08 00:32:46;;;;;;;3.20;2.90;;;;;;;8.43;77.27;95078.16;5007929;28;20973;-67
2024/02/08 00:35:17;;;;;;;2.73;2.50;;;;;;;8.46;77.36;95075.41;5018032;28;20492;-68
2024/02/08 00:37:47;;;;;;;3.37;2.50;;;;;;;8.56;76.54;95081.78;5027775;28;20522;-67
2024/02/08 00:40:16;;;;;;;2.40;2.20;;;;;;;8.53;76.57;95076.72;5027398;28;20497;-67
2024/02/08 00:42:42;;;;;;;3.27;2.10;;;;;;;8.52;76.18;95079.44;5027686;28;20422;-69
2024/02/08 00:45:10;;;;;;;2.73;2.40;;;;;;;8.48;76.83;95076.16;5027931;28;20432;-67
2024/02/08 00:47:37;;;;;;;4.23;2.40;;;;;;;8.53;76.92;95086.31;5009150;28;20426;-69
2024/02/08 00:50:03;;;;;;;2.70;2.27;;;;;;;8.49;77.05;95080.44;5007606;28;20926;-67
2024/02/08 00:52:29;;;;;;;4.80;2.70;;;;;;;8.40;77.24;95076.56;5007547;28;20418;-68
2024/02/08 00:54:54;;;;;;;2.20;1.80;;;;;;;8.55;76.94;95079.25;5007327;28;20881;-68
2024/02/08 00:57:19;;;;;;;3.30;2.40;;;;;;;8.50;77.01;95074.28;5007516;28;20172;-68
2024/02/08 00:59:45;;;;;;;2.50;1.77;;;;;;;8.56;77.11;95080.94;5007515;28;20234;-68
2024/02/08 01:02:10;;;;;;;3.00;2.03;;;;;;;8.46;78.01;95076.22;5008726;28;20190;-68
2024/02/08 01:04:36;;;;;;;3.90;2.40;;;;;;;8.54;77.29;95073.19;5007945;28;20227;-68
2024/02/08 01:07:02;;;;;;;4.10;2.57;;;;;;;8.58;77.20;95077.31;5008498;28;20190;-68
2024/02/08 01:09:28;;;;;;;6.40;2.47;;;;;;;8.47;78.23;95077.06;5008526;28;20595;-68
2024/02/08 01:11:54;;;;;;;2.20;2.00;;;;;;;8.47;78.73;95087.53;5008035;28;20423;-68
2024/02/08 01:14:21;;;;;;;2.90;2.40;;;;;;;8.43;78.02;95080.78;5009976;28;20196;-68
2024/02/08 01:16:51;;;;;;;3.53;2.20;;;;;;;8.50;78.24;95084.72;5009034;28;20435;-67
2024/02/08 01:19:23;;;;;;;2.17;1.83;;;;;;;8.64;77.75;95090.00;5021403;28;20443;-68
2024/02/08 01:21:50;;;;;;;2.10;1.90;;;;;;;8.57;77.87;95090.47;5023639;28;20427;-68
2024/02/08 01:24:18;;;;;;;2.10;1.90;;;;;;;8.59;77.42;95086.00;5022132;28;20435;-68
2024/02/08 01:26:51;;;;;;;2.03;1.87;;;;;;;8.67;77.91;95081.19;5016006;28;20939;-66
2024/02/08 01:29:17;;;;;;;2.40;2.20;;;;;;;8.58;77.77;95086.94;5009186;28;20430;-68
2024/02/08 01:31:43;;;;;;;3.97;2.30;;;;;;;8.52;77.95;95080.25;5008423;28;20412;-67
2024/02/08 01:34:10;;;;;;;2.80;2.30;;;;;;;8.59;78.57;95072.91;5009850;28;21044;-67
2024/02/08 01:36:37;;;;;;;2.77;2.40;;;;;;;8.59;78.72;95086.81;5028640;28;20206;-68
2024/02/08 01:39:05;;;;;;;2.43;2.20;;;;;;;8.61;78.18;95082.34;5028527;28;20430;-67
2024/02/08 01:41:31;;;;;;;1.83;1.73;;;;;;;8.58;78.32;95073.88;5029265;28;20410;-68
2024/02/08 01:44:03;;;;;;;2.37;2.17;;;;;;;8.49;79.48;95075.22;5029077;28;20406;-68
2024/02/08 01:46:31;;;;;;;3.40;2.30;;;;;;;8.59;79.57;95070.31;5020043;28;20427;-68
2024/02/08 01:48:56;;;;;;;2.67;2.10;;;;;;;8.60;79.46;95074.63;5008933;28;20470;-66
2024/02/08 01:51:24;;;;;;;2.90;2.07;;;;;;;8.63;79.05;95069.19;5008182;28;20411;-67
2024/02/08 01:53:51;;;;;;;3.00;2.60;;;;;;;8.65;78.83;95060.34;5008683;28;20231;-68
2024/02/08 01:56:17;;;;;;;2.63;2.43;;;;;;;8.61;79.19;95068.44;5008543;28;20467;-68
2024/02/08 01:58:44;;;;;;;2.73;2.20;;;;;;;8.50;80.14;95070.81;5008541;28;20442;-68
2024/02/08 02:01:10;;;;;;;4.37;2.30;;;;;;;8.60;78.81;95057.16;5007247;28;20190;-69
2024/02/08 02:03:35;;;;;;;2.87;2.07;;;;;;;8.52;80.13;95063.75;5006678;28;20454;-69
2024/02/08 02:06:02;;;;;;;4.93;2.57;;;;;;;8.56;80.37;95060.03;5007461;28;20482;-67
2024/02/08 02:08:28;;;;;;;3.90;2.70;;;;;;;8.58;80.59;95061.63;5007365;28;20537;-68
2024/02/08 02:10:59;;;;;;;3.63;2.70;;;;;;;8.59;79.63;95065.91;5007164;28;20411;-67
2024/02/08 02:13:26;;;;;;;2.70;2.20;;;;;;;8.61;80.34;95065.84;5007090;28;20463;-67
2024/02/08 02:15:52;;;;;;;2.50;2.30;;;;;;;8.57;79.59;95061.69;5006637;28;20439;-67
2024/02/08 02:18:17;;;;;;;2.80;2.40;;;;;;;8.54;80.22;95061.88;5006890;28;20422;-68
2024/02/08 02:20:43;;;;;;;2.40;2.20;;;;;;;8.63;79.45;95049.13;5007099;28;20412;-68
2024/02/08 02:23:09;;;;;;;2.70;2.20;;;;;;;8.67;79.90;95058.47;5006534;28;20179;-68
2024/02/08 02:25:35;;;;;;;2.93;2.73;;;;;;;8.62;79.78;95050.06;5006352;28;20196;-68
2024/02/08 02:28:03;;;;;;;2.47;2.23;;;;;;;8.60;80.24;95053.69;5007042;28;20423;-68
2024/02/08 02:30:29;;;;;;;3.00;2.57;;;;;;;8.62;79.83;95044.84;5006555;28;20930;-68
2024/02/08 02:32:59;;;;;;;2.80;2.40;;;;;;;8.56;80.43;95045.19;5005995;28;20534;-67
2024/02/08 02:35:25;;;;;;;3.00;2.80;;;;;;;8.53;80.93;95047.09;5017568;28;20679;-66
2024/02/08 02:37:51;;;;;;;2.40;2.20;;;;;;;8.71;79.57;95040.81;5025751;28;20425;-68
2024/02/08 02:40:26;;;;;;;3.27;2.40;;;;;;;8.56;80.29;95032.09;5025646;28;20422;-67
2024/02/08 02:42:52;;;;;;;2.90;2.30;;;;;;;8.58;80.53;95032.84;5025535;28;20179;-68
2024/02/08 02:45:23;;;;;;;3.53;2.80;;;;;;;8.67;79.63;95026.25;5025714;28;20442;-66
2024/02/08 02:47:53;;;;;;;3.33;2.80;;;;;;;8.63;79.91;95025.59;5005783;28;20921;-67
2024/02/08 02:50:25;;;;;;;3.27;2.60;;;;;;;8.66;80.15;95030.63;5005799;28;20498;-67
2024/02/08 02:52:51;;;;;;;4.00;2.80;;;;;;;8.62;80.40;95033.50;5005789;28;20565;-68
2024/02/08 02:55:22;;;;;;;3.20;2.90;;;;;;;8.69;79.99;95035.69;5006390;28;20443;-68
2024/02/08 02:57:48;;;;;;;3.10;2.80;;;;;;;8.66;79.84;95029.78;5007794;28;20454;-68
2024/02/08 03:02:49;;;;;;;2.93;2.30;;;;;;;8.76;79.82;95019.63;5009096;28;20179;-69
2024/02/08 03:05:17;;;;;;;2.70;2.50;;;;;;;8.75;79.94;95021.41;5009422;28;21243;-69
2024/02/08 03:07:46;;;;;;;2.50;2.30;;;;;;;8.66;79.62;95022.78;5008310;28;20423;-69
2024/02/08 03:10:12;;;;;;;2.33;2.10;;;;;;;8.72;79.25;95029.44;5007473;28;20465;-68
2024/02/08 03:12:39;;;;;;;2.73;2.50;;;;;;;8.74;78.87;95019.75;5006600;28;20466;-67
2024/02/08 03:15:09;;;;;;;2.57;2.30;;;;;;;8.80;79.26;95013.28;5006624;28;20885;-67
2024/02/08 03:17:35;;;;;;;3.13;2.10;;;;;;;8.69;78.81;95022.63;5006397;28;20407;-66
2024/02/08 03:20:04;;;;;;;2.43;2.17;;;;;;;8.67;79.03;95016.63;5007270;28;20489;-68
2024/02/08 03:22:34;;;;;;;2.57;2.27;;;;;;;8.67;79.39;95015.81;5006987;28;20430;-68
2024/02/08 03:25:00;;;;;;;3.33;2.17;;;;;;;8.67;79.23;95015.81;5005836;28;20427;-67
2024/02/08 03:27:25;;;;;;;2.90;2.40;;;;;;;8.67;78.91;95016.63;5006258;28;20407;-68
2024/02/08 03:29:53;;;;;;;2.67;2.03;;;;;;;8.71;79.26;95016.44;5006479;28;20418;-68
2024/02/08 03:32:23;;;;;;;2.63;2.43;;;;;;;8.72;78.93;95012.88;5006136;28;20643;-68
2024/02/08 03:34:50;;;;;;;3.60;2.57;;;;;;;8.74;79.60;95009.28;5015296;28;20493;-68
2024/02/08 03:37:16;;;;;;;4.33;3.30;;;;;;;8.72;79.32;95010.28;5030172;28;20505;-67
2024/02/08 03:39:41;;;;;;;2.60;2.37;;;;;;;8.78;79.33;95020.38;5029469;28;20489;-67
2024/02/08 03:42:06;;;;;;;2.13;1.93;;;;;;;8.67;79.48;95019.25;5029884;28;20172;-68
2024/02/08 03:44:33;;;;;;;3.10;2.57;;;;;;;8.82;78.12;95011.44;5029539;28;20687;-68
2024/02/08 03:47:07;;;;;;;2.43;2.10;;;;;;;8.78;78.70;95015.16;5029546;28;20222;-68
2024/02/08 03:49:37;;;;;;;2.20;2.00;;;;;;;8.72;78.70;95008.53;5029340;28;20425;-67
2024/02/08 03:52:03;;;;;;;5.07;3.00;;;;;;;8.79;78.95;95011.63;5029142;28;20416;-68
2024/02/08 03:54:30;;;;;;;3.60;2.87;;;;;;;8.82;78.04;95017.50;5029932;28;20462;-67
2024/02/08 03:56:59;;;;;;;2.90;2.60;;;;;;;8.83;77.87;95013.09;5029192;28;20624;-68
2024/02/08 03:59:28;;;;;;;3.13;2.83;;;;;;;8.69;78.49;95013.91;5029158;28;20411;-67
2024/02/08 04:02:00;;;;;;;3.03;2.73;;;;;;;8.69;79.46;95009.53;5029224;28;20411;-67
2024/02/08 04:04:34;;;;;;;3.03;2.83;;;;;;;8.73;78.71;95014.59;5029255;28;20477;-68
2024/02/08 04:07:14;;;;;;;3.80;3.50;;;;;;;8.73;79.28;95011.97;5029101;28;20430;-68
2024/02/08 04:09:48;;;;;;;3.33;3.03;;;;;;;8.75;78.54;95008.34;5028566;28;20409;-68
2024/02/08 04:53:39;;;;;;;3.30;3.00;;;;;;;8.74;78.32;95017.13;5007517;28;20468;-68
2024/02/08 04:56:11;;;;;;;3.47;2.73;;;;;;;8.78;78.79;95010.75;5007346;28;20458;-68
2024/02/08 04:58:40;;;;;;;3.40;3.07;;;;;;;8.85;78.34;95006.00;5007949;28;20411;-66
2024/02/08 05:01:08;;;;;;;3.13;2.83;;;;;;;8.92;77.76;95009.09;5007700;28;20498;-68
2024/02/08 05:03:39;;;;;;;2.67;2.43;;;;;;;8.83;78.20;95011.31;5007820;28;21198;-67
2024/02/08 05:06:11;;;;;;;2.73;2.53;;;;;;;8.83;77.83;95002.63;5007193;28;20526;-68
2024/02/08 05:08:44;;;;;;;3.37;2.50;;;;;;;8.92;77.83;95002.09;5007243;28;20408;-68
2024/02/08 05:11:10;;;;;;;3.87;2.40;;;;;;;8.81;77.91;95007.97;5007112;28;20407;-67
2024/02/08 05:13:40;;;;;;;3.80;2.33;;;;;;;8.81;78.16;95012.34;5007202;28;20462;-68
2024/02/08 05:16:07;;;;;;;2.47;2.17;;;;;;;8.89;77.70;95002.28;5007795;28;20459;-68
2024/02/08 05:18:32;;;;;;;3.00;2.80;;;;;;;8.85;77.58;95003.41;5008278;28;20522;-68
2024/02/08 05:20:58;;;;;;;2.83;1.90;;;;;;;8.83;78.06;95002.63;5007885;28;20568;-68
2024/02/08 05:23:27;;;;;;;4.13;2.80;;;;;;;8.90;77.90;94999.59;5007824;28;20678;-69
2024/02/08 05:25:52;;;;;;;4.57;2.57;;;;;;;8.89;77.25;95003.13;5007957;28;20200;-68
2024/02/08 05:28:18;;;;;;;4.03;2.40;;;;;;;8.96;77.12;95003.59;5008180;28;21007;-68
2024/02/08 05:30:44;;;;;;;3.53;2.00;;;;;;;8.99;77.14;94999.97;5007260;28;20904;-68
2024/02/08 05:33:11;;;;;;;2.53;2.10;;;;;;;9.03;77.19;95001.47;5007816;28;20210;-68
2024/02/08 05:35:39;;;;;;;3.53;2.07;;;;;;;8.99;77.04;94998.19;5036725;28;20446;-68
2024/02/08 05:38:05;;;;;;;1.97;1.80;;;;;;;8.84;78.00;94997.31;5028143;28;20421;-68
2024/02/08 05:40:31;;;;;;;2.87;2.17;;;;;;;8.91;77.90;94997.81;5027752;28;20913;-70
2024/02/08 05:42:59;;;;;;;3.73;2.07;;;;;;;8.98;76.95;94993.88;5027418;28;20187;-67
2024/02/08 05:45:30;;;;;;;5.73;2.10;;;;;;;8.96;77.71;94994.91;5028105;28;20202;-67
2024/02/08 05:48:05;;;;;;;2.90;2.10;;;;;;;9.02;76.84;94997.16;5015077;28;20917;-67
2024/02/08 05:50:32;;;;;;;2.53;1.90;;;;;;;9.03;76.98;95001.47;5012042;28;20422;-68
2024/02/08 05:52:57;;;;;;;2.80;1.90;;;;;;;9.00;77.05;94997.25;5007614;28;20427;-68
2024/02/08 05:55:26;;;;;;;5.00;2.23;;;;;;;9.03;77.46;94991.00;5008178;28;20435;-68
2024/02/08 05:57:58;;;;;;;2.20;2.00;;;;;;;9.03;77.40;94996.22;5007126;28;20501;-68
2024/02/08 06:00:35;;;;;;;3.10;1.80;;;;;;;8.97;77.82;94986.13;5007329;28;20455;-67
2024/02/08 06:03:03;;;;;;;2.30;2.10;;;;;;;8.97;77.21;94980.88;5007186;28;20402;-67
2024/02/08 06:05:30;;;;;;;3.07;2.40;;;;;;;8.93;77.60;94984.63;5005459;28;20613;-67
2024/02/08 06:07:56;;;;;;;5.90;5.40;;;;;;;8.93;77.59;94980.25;5009718;28;21057;-68
2024/02/08 06:10:41;;;;;;;2.70;2.50;;;;;;;8.92;78.13;94983.78;5006161;28;20429;-68
2024/02/08 06:13:13;;;;;;;3.63;2.30;;;;;;;8.91;77.93;94979.50;5014549;28;20754;-67
2024/02/08 06:15:42;;;;;;;6.30;2.63;;;;;;;8.97;77.64;94986.13;5018529;28;20830;-69
2024/02/08 06:18:19;;;;;;;2.63;1.97;;;;;;;8.99;77.40;94979.84;5009691;28;20439;-68
2024/02/08 06:20:51;;;;;;;3.10;2.20;;;;;;;8.99;77.07;94977.25;5017593;28;20423;-69
2024/02/08 06:23:22;;;;;;;6.17;2.33;;;;;;;9.01;77.03;94978.00;5006411;28;20439;-68
2024/02/08 06:28:37;;;;;;;3.80;2.03;;;;;;;9.04;76.44;94977.81;5013763;28;20525;-67
2024/02/08 06:31:06;;;;;;;3.00;2.50;;;;;;;9.05;76.94;94987.34;5008636;28;20442;-67
2024/02/08 06:33:42;;;;;;;2.30;2.10;;;;;;;9.14;76.54;94987.72;5019780;28;20503;-66
2024/02/08 06:36:08;;;;;;;7.57;3.23;;;;;;;9.06;77.09;94990.81;5013498;28;20469;-67
2024/02/08 06:38:53;;;;;;;3.77;2.43;;;;;;;9.05;76.42;94995.19;5016767;28;20438;-70
2024/02/08 06:41:44;;;;;;;2.43;2.07;;;;;;;9.09;75.94;94995.84;5010362;28;20914;-67
2024/02/08 06:47:17;;;;;;;2.40;2.20;;;;;;;9.07;76.18;94993.34;5015648;28;20587;-69
2024/02/08 07:39:30;;;;;;;3.60;3.00;;;;;;;9.38;74.99;94993.22;5018901;28;20445;-69
2024/02/08 07:41:40;;;;;;;2.23;1.80;;;;;;;9.31;74.74;94982.31;5029013;28;20406;-69
2024/02/08 07:44:09;;;;;;;4.33;2.17;;;;;;;9.39;74.46;94993.13;5027413;28;20433;-69
2024/02/08 07:46:40;;;;;;;2.43;2.20;;;;;;;9.42;74.64;94992.94;5026985;28;20231;-68
2024/02/08 07:49:05;;;;;;;2.37;2.17;;;;;;;9.36;74.74;94992.50;5023822;28;20483;-68
2024/02/08 07:51:33;;;;;;;3.00;1.80;;;;;;;9.41;74.40;94993.06;5024348;28;20433;-69
2024/02/08 07:53:59;;;;;;;5.57;2.13;;;;;;;9.35;74.71;94980.31;5027210;28;20215;-68
2024/02/08 07:56:46;;;;;;;2.20;2.00;;;;;;;9.53;74.28;94979.19;5022579;28;20816;-68
2024/02/08 07:59:15;;;;;;;4.53;2.40;;;;;;;9.52;74.42;94990.63;5018118;28;20446;-68
2024/02/08 08:01:49;;;;;;;3.30;2.40;;;;;;;9.53;74.52;94989.66;5026523;28;20446;-68
2024/02/08 08:04:41;;;;;;;2.70;2.03;;;;;;;9.62;74.19;94994.31;5018946;28;20544;-68
2024/02/08 08:07:07;;;;;;;4.50;2.17;;;;;;;9.52;74.70;94996.69;5030302;28;20465;-69
2024/02/08 08:09:36;;;;;;;2.70;2.20;;;;;;;9.37;75.73;94995.00;5025558;28;20454;-67
2024/02/08 08:12:04;;;;;;;2.70;1.83;;;;;;;9.51;74.84;94999.38;5019666;28;20414;-68
2024/02/08 08:19:49;;;;;;;3.80;2.93;;;;;;;9.54;74.81;95026.25;5024899;28;20417;-69
2024/02/08 08:26:00;;;;;;;3.33;2.53;;;;;;;9.56;74.75;95033.16;5021836;28;20175;-69
2024/02/08 08:28:09;;;;;;;4.43;2.50;;;;;;;9.47;75.27;95032.78;5032563;28;20418;-68
2024/02/08 08:30:38;;;;;;;2.67;2.07;;;;;;;9.49;75.56;95014.34;5029280;28;20519;-68
2024/02/08 08:38:28;;;;;;;3.80;2.10;;;;;;;9.63;74.81;94997.78;5008645;28;20429;-69
2024/02/08 08:41:04;;;;;;;2.43;2.23;;;;;;;9.53;75.38;94984.44;5022654;28;20425;-69
2024/02/08 08:43:32;;;;;;;3.50;2.10;;;;;;;9.65;74.65;94985.44;5028346;28;20529;-67
2024/02/08 08:46:00;;;;;;;2.90;2.40;;;;;;;9.72;74.58;94981.50;5023200;28;20465;-69
2024/02/08 08:48:33;;;;;;;4.33;2.53;;;;;;;9.59;75.32;94970.97;5027526;28;20424;-67
2024/02/08 08:51:10;;;;;;;2.63;2.40;;;;;;;9.73;74.83;94960.44;5028371;28;20537;-68
2024/02/08 08:53:43;;;;;;;2.33;1.93;;;;;;;9.71;74.48;94964.09;5028608;28;20462;-69
2024/02/08 08:56:13;;;;;;;2.33;2.13;;;;;;;9.90;73.94;94967.22;5028882;28;20442;-67
2024/02/08 08:58:40;;;;;;;4.73;3.00;;;;;;;10.02;73.59;94964.75;5030110;28;20651;-69
2024/02/08 09:01:17;;;;;;;2.93;2.70;;;;;;;9.99;74.28;94973.63;5023653;28;20502;-68
2024/02/08 09:03:43;;;;;;;2.70;2.47;;;;;;;9.98;74.01;94977.22;5023854;28;20421;-68
2024/02/08 09:06:12;;;;;;;4.20;2.30;;;;;;;10.01;74.39;94981.41;5030983;28;20961;-69
2024/02/08 09:08:54;;;;;;;3.57;2.20;;;;;;;10.06;73.83;94977.56;5028872;28;20422;-69
2024/02/08 09:11:26;;;;;;;3.13;2.60;;;;;;;10.05;74.17;94970.63;5025583;28;20461;-70
2024/02/08 09:13:52;;;;;;;3.63;2.40;;;;;;;10.21;73.33;94967.03;5028980;28;20469;-68
2024/02/08 09:21:26;;;;;;;2.23;1.60;;;;;;;12.60;65.54;94946.81;5026731;28;20418;-68
2024/02/08 09:23:52;;;;;;;6.90;3.40;;;;;;;12.79;64.82;94941.84;5028956;28;20517;-68
2024/02/08 09:26:24;;;;;;;3.00;1.63;;;;;;;12.98;63.25;94943.06;5029378;28;20524;-70
2024/02/08 09:28:50;;;;;;;6.60;1.97;;;;;;;12.82;62.66;94933.69;5029747;28;20426;-70
2024/02/08 09:31:18;;;;;;;4.00;1.70;;;;;;;12.49;63.85;94940.53;5028127;28;20426;-70
2024/02/08 09:33:44;;;;;;;3.00;1.90;;;;;;;12.13;66.41;94945.91;5017507;28;20463;-69
2024/02/08 09:36:14;;;;;;;2.90;2.37;;;;;;;11.77;66.88;94945.81;5024778;28;20469;-69
2024/02/08 09:38:43;;;;;;;1.77;1.67;;;;;;;11.71;67.99;94948.88;5028779;28;20948;-69
2024/02/08 09:41:15;;;;;;;3.10;1.90;;;;;;;11.66;67.26;94946.56;5024655;28;20969;-69
2024/02/08 09:43:45;;;;;;;3.20;1.90;;;;;;;11.44;68.54;94956.94;5020844;28;20430;-68
2024/02/08 09:46:49;;;;;;;1.63;1.43;;;;;;;11.71;67.26;94940.16;5026264;28;20851;-69
2024/02/08 09:49:12;;;;;;;3.60;1.90;;;;;;;12.01;65.58;94943.22;5027706;28;20529;-72
2024/02/08 09:51:40;;;;;;;9.83;3.57;;;;;;;11.91;66.40;94944.84;5028914;28;20414;-71
2024/02/08 09:54:15;;;;;;;2.30;1.80;;;;;;;11.79;67.07;94940.47;5028691;28;20466;-71
2024/02/08 09:56:54;;;;;;;2.63;2.10;;;;;;;11.98;67.05;94937.38;5029871;28;20445;-71
2024/02/08 10:02:23;;;;;;;2.97;1.53;;;;;;;11.79;67.20;94940.47;5021566;28;20425;-71
2024/02/08 10:04:56;;;;;;;5.00;1.70;;;;;;;11.74;68.18;94938.16;5028255;28;20406;-66
2024/02/08 10:07:33;;;;;;;3.20;1.87;;;;;;;11.77;67.95;94942.34;5027187;28;20616;-68
2024/02/08 10:10:14;;;;;;;2.47;1.80;;;;;;;11.98;67.26;94948.72;5018551;28;20524;-69
2024/02/08 10:12:53;;;;;;;2.20;1.60;;;;;;;12.33;65.93;94934.78;5016883;28;20465;-70
2024/02/08 10:15:26;;;;;;;2.17;1.83;;;;;;;12.29;64.89;94931.53;5013519;28;20478;-68
2024/02/08 10:18:02;;;;;;;3.67;2.40;;;;;;;12.20;66.72;94926.09;5021986;28;20455;-68
2024/02/08 10:20:45;;;;;;;3.20;2.30;;;;;;;12.03;66.90;94930.81;5023512;28;20492;-70
2024/02/08 10:23:33;;;;;;;2.13;1.63;;;;;;;12.04;66.71;94929.84;5027122;28;20426;-68
2024/02/08 10:26:20;;;;;;;2.27;2.07;;;;;;;12.17;66.82;94926.34;5018784;28;20535;-69
2024/02/08 10:28:54;;;;;;;3.23;2.27;;;;;;;12.10;66.78;94930.38;5021893;28;20872;-70
2024/02/08 10:31:24;;;;;;;2.80;2.37;;;;;;;12.07;66.95;94924.38;5029239;28;20417;-69
2024/02/08 10:33:57;;;;;;;3.03;1.80;;;;;;;12.04;66.97;94926.38;5011172;28;20455;-69
2024/02/08 10:36:31;;;;;;;3.37;2.23;;;;;;;12.11;67.11;94916.25;5023272;28;20450;-69
2024/02/08 10:39:07;;;;;;;1.60;1.40;;;;;;;12.23;66.57;94923.25;5025582;28;21122;-69
2024/02/08 10:44:22;;;;;;;2.67;1.80;;;;;;;12.14;67.43;94921.28;5026971;28;20414;-67
2024/02/08 10:46:55;;;;;;;2.10;1.90;;;;;;;12.14;67.31;94919.53;5023420;28;20434;-69
2024/02/08 10:49:22;;;;;;;2.93;1.60;;;;;;;12.04;67.15;94918.50;5020471;28;20415;-70
2024/02/08 10:51:49;;;;;;;3.30;1.60;;;;;;;11.91;68.17;94923.81;5022554;28;20447;-70
2024/02/08 10:54:15;;;;;;;3.67;2.00;;;;;;;11.79;69.06;94919.44;5025642;28;20462;-70
2024/02/08 10:56:48;;;;;;;2.13;1.83;;;;;;;11.74;68.17;94916.28;5028466;28;20453;-70
2024/02/08 10:59:20;;;;;;;5.40;1.97;;;;;;;11.62;69.48;94904.84;5020573;28;20183;-70
2024/02/08 11:04:20;;;;;;;2.60;1.87;;;;;;;11.78;68.78;94891.47;5010092;28;20517;-70
2024/02/08 11:06:56;;;;;;;7.70;2.40;;;;;;;11.82;68.61;94887.66;5013739;28;20794;-71
2024/02/08 11:09:27;;;;;;;9.33;2.83;;;;;;;11.93;68.45;94879.00;5019465;28;20422;-69
2024/02/08 11:12:08;;;;;;;8.13;1.90;;;;;;;11.91;68.48;94879.13;5023471;28;20433;-70
2024/02/08 11:14:41;;;;;;;1.97;1.57;;;;;;;11.91;69.66;94876.50;5027938;28;20473;-70
2024/02/08 11:17:20;;;;;;;4.60;2.13;;;;;;;11.82;70.00;94877.16;5026903;28;20588;-69
2024/02/08 11:19:49;;;;;;;2.40;1.87;;;;;;;11.70;69.72;94876.25;5026483;28;20414;-67
2024/02/08 11:22:39;;;;;;;2.37;1.60;;;;;;;11.58;70.00;94867.47;5027141;28;20505;-68
2024/02/08 11:25:19;;;;;;;2.90;2.13;;;;;;;11.48;71.27;94869.09;5026436;28;20487;-70
2024/02/08 11:27:55;;;;;;;3.10;2.13;;;;;;;11.37;72.17;94861.16;5026366;28;20410;-69
2024/02/08 11:30:34;;;;;;;3.47;2.17;;;;;;;11.42;72.61;94864.28;5023719;28;20414;-70
2024/02/08 11:33:02;;;;;;;2.90;1.87;;;;;;;11.61;72.38;94854.09;5022353;28;20428;-70
2024/02/08 11:35:31;;;;;;;1.97;1.43;;;;;;;11.99;70.40;94847.03;5013750;28;20439;-68
2024/02/08 11:38:16;;;;;;;2.17;1.60;;;;;;;12.05;70.53;94839.53;5005629;28;20550;-69
2024/02/08 11:40:45;;;;;;;2.40;1.90;;;;;;;12.29;69.44;94828.94;5010815;28;20414;-69
2024/02/08 11:43:23;;;;;;;2.40;1.33;;;;;;;12.31;69.20;94834.09;5025378;28;21041;-68
2024/02/08 11:45:56;;;;;;;1.70;1.60;;;;;;;12.26;69.09;94836.25;5020657;28;20433;-68
2024/02/08 11:48:26;;;;;;;2.40;1.87;;;;;;;12.32;68.70;94827.88;5024657;28;20471;-68
2024/02/08 11:51:10;;;;;;;2.80;1.70;;;;;;;12.25;68.90;94818.75;5026302;28;20440;-67
2024/02/08 11:53:36;;;;;;;2.17;1.80;;;;;;;12.26;69.20;94818.66;5027250;28;20518;-68
2024/02/08 11:56:12;;;;;;;2.20;1.60;;;;;;;12.14;68.75;94821.38;5025991;28;21345;-67
2024/02/08 11:58:40;;;;;;;2.17;1.37;;;;;;;12.13;69.74;94819.69;5033001;28;20179;-70
2024/02/08 12:01:06;;;;;;;2.33;1.70;;;;;;;12.21;69.38;94809.44;5039586;28;20831;-69
2024/02/08 12:03:33;;;;;;;5.57;2.30;;;;;;;12.36;69.72;94794.28;5033515;28;20411;-68
2024/02/08 12:06:00;;;;;;;4.97;1.80;;;;;;;12.36;69.77;94795.13;5028668;28;20439;-67
2024/02/08 12:08:26;;;;;;;2.73;2.33;;;;;;;12.44;68.31;94789.25;5015190;28;20423;-68
2024/02/08 12:10:51;;;;;;;2.70;2.10;;;;;;;12.66;68.20;94789.28;5013854;28;20438;-69
2024/02/08 12:13:25;;;;;;;2.40;1.80;;;;;;;12.77;67.74;94791.06;5030297;28;20297;-67
2024/02/08 12:15:55;;;;;;;1.90;1.50;;;;;;;12.68;68.18;94782.13;5035588;28;20187;-68
2024/02/08 12:18:22;;;;;;;1.30;1.03;;;;;;;12.73;67.39;94773.81;5031905;28;20429;-67
2024/02/08 12:20:58;;;;;;;2.80;1.43;;;;;;;12.66;67.75;94781.41;5029547;28;20418;-68
2024/02/08 12:23:23;;;;;;;2.87;1.20;;;;;;;12.55;67.87;94772.66;5029571;28;20475;-68
2024/02/08 12:25:54;;;;;;;1.70;1.50;;;;;;;12.36;68.49;94766.19;5021320;28;20985;-69
2024/02/08 12:28:24;;;;;;;2.97;1.33;;;;;;;12.44;68.97;94766.41;5010865;28;20168;-67
2024/02/08 12:30:54;;;;;;;2.20;1.30;;;;;;;12.42;69.27;94770.13;5025089;28;20453;-67
2024/02/08 12:33:21;;;;;;;1.70;1.20;;;;;;;12.47;68.67;94771.47;5015809;28;21039;-68
2024/02/08 12:35:47;;;;;;;1.47;1.30;;;;;;;12.39;68.30;94765.09;5024246;28;20964;-69
2024/02/08 12:38:16;;;;;;;2.53;1.20;;;;;;;12.43;68.41;94770.00;5029008;28;20418;-69
2024/02/08 12:40:44;;;;;;;3.13;1.33;;;;;;;12.47;68.38;94779.34;5028050;28;20414;-67
2024/02/08 12:43:10;;;;;;;3.20;1.63;;;;;;;12.41;68.56;94776.34;5026453;28;20415;-67
2024/02/08 12:45:38;;;;;;;3.03;1.13;;;;;;;12.38;69.42;94771.31;5017922;28;20437;-67
2024/02/08 12:48:07;;;;;;;1.83;1.13;;;;;;;12.40;68.54;94767.63;5008932;28;20482;-67
2024/02/08 12:50:37;;;;;;;1.83;1.40;;;;;;;12.44;68.85;94763.78;5019995;28;20432;-66
2024/02/08 12:53:05;;;;;;;1.53;1.03;;;;;;;12.44;69.52;94758.53;5023403;28;20430;-67
2024/02/08 12:55:31;;;;;;;2.43;1.40;;;;;;;12.39;69.33;94755.41;5019120;28;20422;-67
2024/02/08 12:58:02;;;;;;;2.00;1.20;;;;;;;12.35;68.86;94756.59;5018882;28;20438;-66
2024/02/08 13:00:34;;;;;;;4.07;1.97;;;;;;;12.29;68.92;94738.69;5013490;28;20183;-65
2024/02/08 13:03:05;;;;;;;2.40;1.20;;;;;;;12.35;69.66;94742.63;5017895;28;20431;-67
2024/02/08 13:05:41;;;;;;;3.00;1.27;;;;;;;12.32;68.95;94741.06;5017874;28;20454;-67
2024/02/08 13:08:17;;;;;;;2.23;1.10;;;;;;;12.33;68.94;94741.91;5020841;28;20980;-68
2024/02/08 13:10:42;;;;;;;1.37;1.13;;;;;;;12.39;69.41;94744.06;5022144;28;20410;-67
2024/02/08 13:13:09;;;;;;;2.30;1.30;;;;;;;12.46;67.93;94753.97;5007396;28;20543;-66
2024/02/08 13:15:35;;;;;;;1.90;1.37;;;;;;;12.50;67.83;94742.28;5020795;28;20202;-67
2024/02/08 13:18:02;;;;;;;2.27;1.20;;;;;;;12.53;68.32;94740.38;5022178;28;20995;-67
2024/02/08 13:20:28;;;;;;;3.47;1.30;;;;;;;12.43;68.23;94746.34;5017727;28;20182;-66
2024/02/08 13:22:55;;;;;;;1.67;1.30;;;;;;;12.42;67.69;94733.28;5027215;28;20418;-66
2024/02/08 13:25:27;;;;;;;2.27;1.37;;;;;;;12.36;68.42;94741.69;5029260;28;20418;-67
2024/02/08 13:27:54;;;;;;;2.63;1.20;;;;;;;12.29;68.66;94744.78;5027995;28;20429;-67
2024/02/08 13:30:19;;;;;;;8.53;1.40;;;;;;;12.32;67.76;94741.06;5028817;28;20402;-67
2024/02/08 13:32:51;;;;;;;2.13;1.37;;;;;;;12.28;67.78;94742.25;5029175;28;20472;-67
2024/02/08 13:35:20;;;;;;;3.97;1.63;;;;;;;12.28;68.76;94714.19;5026991;28;20272;-67
2024/02/08 13:37:49;;;;;;;2.33;1.27;;;;;;;12.25;68.27;94718.81;5027451;28;20418;-67
2024/02/08 13:40:17;;;;;;;2.80;1.50;;;;;;;12.16;68.79;94711.66;5026689;28;20420;-67
2024/02/08 13:42:42;;;;;;;7.97;1.70;;;;;;;12.15;68.49;94710.81;5026828;28;20405;-67
2024/02/08 13:45:09;;;;;;;4.37;1.57;;;;;;;12.15;68.17;94702.94;5026890;28;20426;-67
2024/02/08 13:47:37;;;;;;;5.03;1.90;;;;;;;12.10;68.23;94697.19;5009350;28;20255;-66
2024/02/08 13:50:07;;;;;;;5.20;1.83;;;;;;;12.02;68.94;94699.56;5007089;28;20426;-66
2024/02/08 13:52:32;;;;;;;2.77;1.47;;;;;;;12.00;68.79;94690.94;5007218;28;20514;-67
2024/02/08 13:54:58;;;;;;;5.40;1.60;;;;;;;11.90;69.62;94701.34;5007708;28;20470;-67
2024/02/08 13:57:24;;;;;;;2.27;1.50;;;;;;;11.82;69.40;94708.94;5008088;28;20670;-66